Time;durP1;ratioP1;P1;durP2;ratioP2;P2;SDS_P1;SDS_P2;PMS_P1;PMS_P2;Temp;Humidity;BMP_temperature;BMP_pressure;BME280_temperature;BME280_humidity;BME280_pressure;Samples;Min_cycle;Max_cycle;Signal;HPM_P1;HPM_P2
2023/01/28 00:01:12;;;;;;;;;;;2.50;87.60;;;-151.14;100.00;62537.16;4971045;28;19928;-81
2023/01/28 00:03:40;;;;;;;;;;;2.50;87.60;;;-151.14;100.00;62537.16;4954643;29;19929;-81
2023/01/28 00:06:09;;;;;;;;;;;2.50;87.60;;;-151.14;100.00;62537.16;4955605;29;20176;-81
2023/01/28 00:08:38;;;;;;;;;;;2.50;87.50;;;-151.14;100.00;62537.16;4938010;29;19926;-81
2023/01/28 00:11:07;;;;;;;;;;;2.50;87.70;;;-151.14;100.00;62537.16;4954704;29;19922;-81
2023/01/28 00:13:35;;;;;;;;;;;2.50;87.70;;;1.12;100.00;62537.16;4938433;29;19928;-81
2023/01/28 00:16:04;;;;;;;;;;;2.50;87.60;;;-151.14;100.00;62537.16;4922903;29;19930;-81
2023/01/28 00:18:32;;;;;;;;;;;2.50;87.80;;;-151.14;100.00;62537.16;4938091;29;20133;-81
2023/01/28 00:21:00;;;;;;;;;;;2.50;87.60;;;-151.14;100.00;62537.16;4955192;29;19929;-81
2023/01/28 00:23:28;;;;;;;;;;;2.50;87.60;;;1.13;100.00;62537.16;4969751;28;19922;-80
2023/01/28 00:25:59;;;;;;;;;;;2.50;87.50;;;-151.14;100.00;62537.16;4938576;29;20113;-81
2023/01/28 00:28:27;;;;;;;;;;;2.50;87.60;;;-151.14;100.00;62537.16;4920929;29;19923;-81
2023/01/28 00:30:55;;;;;;;;;;;2.50;87.60;;;-151.14;100.00;62537.16;4919112;29;19923;-81
2023/01/28 00:33:23;;;;;;;;;;;2.50;87.70;;;-151.14;100.00;62537.16;4919319;29;20215;-81
2023/01/28 00:35:59;;;;;;;;;;;2.50;87.80;;;-151.14;100.00;62537.16;4919198;29;20211;-81
2023/01/28 00:38:27;;;;;;;;;;;2.50;87.60;;;-151.14;100.00;62537.16;4918802;29;19922;-81
2023/01/28 00:40:55;;;;;;;;;;;2.50;87.50;;;1.13;100.00;62537.16;4919012;29;19923;-81
2023/01/28 00:43:25;;;;;;;;;;;2.50;87.70;;;-151.14;100.00;62537.16;4903443;29;19929;-81
2023/01/28 00:45:53;;;;;;;;;;;2.50;87.60;;;-151.14;100.00;62537.16;4936064;29;19929;-81
2023/01/28 00:48:21;;;;;;;;;;;2.50;87.60;;;-151.14;100.00;62537.16;4934587;29;19922;-81
2023/01/28 00:50:49;;;;;;;;;;;2.50;87.60;;;-151.14;100.00;62537.16;4934565;29;19923;-81
2023/01/28 00:53:17;;;;;;;;;;;2.50;87.70;;;-151.14;100.00;62537.16;4918922;29;20340;-81
2023/01/28 00:55:46;;;;;;;;;;;2.50;87.70;;;-151.14;100.00;62537.16;4918901;29;19922;-81
2023/01/28 00:58:14;;;;;;;;;;;2.50;87.70;;;-151.14;100.00;62537.16;4918526;29;20100;-81
2023/01/28 01:00:43;;;;;;;;;;;2.50;87.80;;;-151.14;100.00;62537.16;4934531;29;20223;-81
2023/01/28 01:03:11;;;;;;;;;;;2.50;87.80;;;-151.14;100.00;62537.16;4903133;29;20241;-81
2023/01/28 01:05:39;;;;;;;;;;;2.50;87.60;;;-151.14;100.00;62537.16;4934599;29;19929;-81
2023/01/28 01:08:09;;;;;;;;;;;2.50;87.70;;;-151.14;100.00;62537.16;4927466;29;19926;-81
2023/01/28 01:10:38;;;;;;;;;;;2.50;87.70;;;-151.14;100.00;62537.16;4937499;29;19922;-81
2023/01/28 01:13:07;;;;;;;;;;;2.50;87.80;;;-151.14;100.00;62537.16;4945148;29;19923;-81
2023/01/28 01:15:36;;;;;;;;;;;2.50;87.80;;;-151.14;100.00;62537.16;4918630;29;19926;-81
2023/01/28 01:18:05;;;;;;;;;;;2.50;87.80;;;-151.14;100.00;62537.16;4934159;29;19945;-81
2023/01/28 01:20:38;;;;;;;;;;;2.50;88.70;;;-151.14;100.00;62537.16;4934260;29;20210;-81
2023/01/28 01:23:06;;;;;;;;;;;2.50;87.70;;;-151.14;100.00;62537.16;4935441;29;19922;-81
2023/01/28 01:25:34;;;;;;;;;;;2.50;87.60;;;-151.14;100.00;62537.16;4953343;29;20207;-81
2023/01/28 01:28:02;;;;;;;;;;;2.50;87.80;;;-151.14;100.00;62537.16;4953038;29;20236;-81
2023/01/28 01:30:30;;;;;;;;;;;2.40;87.50;;;-151.14;100.00;62537.16;4937345;29;20241;-81
2023/01/28 01:32:58;;;;;;;;;;;2.40;88.50;;;-151.14;100.00;62537.16;4948530;29;19923;-81
2023/01/28 01:35:28;;;;;;;;;;;2.50;87.80;;;-151.14;100.00;62537.16;4934174;29;19929;-81
2023/01/28 01:37:56;;;;;;;;;;;2.40;87.60;;;-151.14;100.00;62537.16;4933633;29;19923;-81
2023/01/28 01:40:24;;;;;;;;;;;2.40;87.60;;;18.10;100.00;62537.16;4934108;29;19923;-81
2023/01/28 01:42:52;;;;;;;;;;;2.50;87.80;;;-151.14;100.00;62537.16;4936383;29;19922;-81
2023/01/28 01:45:20;;;;;;;;;;;2.50;87.70;;;18.09;100.00;62537.16;4953021;29;19922;-81
2023/01/28 01:47:50;;;;;;;;;;;2.50;87.70;;;-151.14;100.00;62537.16;4953189;29;20100;-81
2023/01/28 01:50:22;;;;;;;;;;;2.50;87.70;;;-151.14;100.00;62537.16;4952872;29;19922;-81
2023/01/28 01:52:54;;;;;;;;;;;2.40;87.50;;;-151.14;100.00;62537.16;4969055;28;19923;-81
2023/01/28 01:55:24;;;;;;;;;;;2.40;87.60;;;1.10;100.00;62537.16;4952851;29;19937;-81
2023/01/28 01:57:52;;;;;;;;;;;2.50;87.80;;;1.10;100.00;62537.16;4968495;28;19923;-81
2023/01/28 02:00:20;;;;;;;;;;;2.40;87.60;;;-151.14;100.00;62537.16;4933666;29;19923;-81
2023/01/28 02:02:49;;;;;;;;;;;2.40;87.60;;;-151.14;100.00;62537.16;4949659;29;19930;-81
2023/01/28 02:05:18;;;;;;;;;;;2.50;87.80;;;-151.14;100.00;62537.16;4968396;28;19922;-81
2023/01/28 02:07:47;;;;;;;;;;;2.40;87.70;;;-151.14;100.00;62537.16;4952485;29;19922;-81
2023/01/28 02:10:16;;;;;;;;;;;2.40;87.60;;;-151.14;100.00;62537.16;4968478;28;20142;-81
2023/01/28 02:12:46;;;;;;;;;;;2.40;87.60;;;-151.14;100.00;62537.16;4968691;28;19929;-81
2023/01/28 02:15:15;;;;;;;;;;;2.40;87.80;;;1.09;100.00;62537.16;4952869;29;19923;-81
2023/01/28 02:26:56;;;;;;;;;;;2.40;87.70;;;-151.14;100.00;62537.16;4976348;28;19918;-90
2023/01/28 02:29:27;;;;;;;;;;;2.40;87.50;;;-151.14;100.00;62537.16;4972447;28;19917;-90
2023/01/28 02:31:58;;;;;;;;;;;2.50;87.70;;;-151.14;100.00;62537.16;4956118;28;19944;-91
2023/01/28 02:34:31;;;;;;;;;;;2.40;87.90;;;-151.14;100.00;62537.16;4956352;28;19929;-90
2023/01/28 02:37:01;;;;;;;;;;;2.40;87.70;;;-151.14;100.00;62537.16;4955880;28;20229;-90
2023/01/28 02:39:30;;;;;;;;;;;2.40;87.60;;;;;;4972280;28;19929;-90
2023/01/28 02:41:59;;;;;;;;;;;2.40;87.60;;;1.10;100.00;62537.16;4972227;28;19922;-90
2023/01/28 02:44:28;;;;;;;;;;;2.50;87.60;;;-151.14;100.00;62537.16;4956169;28;19922;-90
2023/01/28 02:49:56;;;;;;;;;;;2.40;87.70;;;-151.14;100.00;62537.16;4867675;29;19924;-90
2023/01/28 11:11:14;;;;;;;;;;;2.60;87.00;;;-151.14;100.00;62537.16;4349792;32;20220;-81
2023/01/28 11:13:49;;;;;;;;;;;2.60;87.80;;;-151.14;100.00;62537.16;5074306;28;34169;-81
2023/01/28 11:16:18;;;;;;;;;;;2.60;87.80;;;-151.14;100.00;62537.16;5070643;28;19920;-81
2023/01/28 11:18:48;;;;;;;;;;;2.60;87.60;;;-151.14;100.00;62537.16;5086709;28;19920;-81
2023/01/28 11:21:16;;;;;;;;;;;2.60;87.60;;;18.10;100.00;62537.16;5108804;23;19924;31
2023/01/28 11:23:49;;;;;;;;;;;2.60;87.60;;;-151.14;100.00;62537.16;4988589;28;20254;-91
2023/01/28 11:26:21;;;;;;;;;;;2.60;87.50;;;-151.14;100.00;62537.16;4975134;28;19921;-89
2023/01/28 11:28:50;;;;;;;;;;;2.70;87.60;;;1.27;100.00;62537.16;5033138;28;19922;-89
2023/01/28 11:31:18;;;;;;;;;;;2.70;87.50;;;-151.14;100.00;62537.16;4990372;28;19921;-90
2023/01/28 11:33:48;;;;;;;;;;;2.60;87.30;;;-151.14;100.00;62537.16;4990956;28;19922;-90
2023/01/28 11:36:17;;;;;;;;;;;2.70;87.40;;;-151.14;100.00;62537.16;4991170;28;20116;-91
2023/01/28 11:38:50;;;;;;;;;;;2.70;87.30;;;-151.14;100.00;62537.16;5008263;28;19932;-90
2023/01/28 11:41:20;;;;;;;;;;;2.70;87.30;;;-151.14;100.00;62537.16;4990712;28;20112;-91
2023/01/28 11:43:49;;;;;;;;;;;2.70;87.20;;;2.20;100.00;62537.16;4990863;28;20205;-90
2023/01/28 11:46:25;;;;;;;;;;;2.70;87.20;;;-151.14;100.00;62537.16;5007136;28;19921;-91
2023/01/28 11:48:56;;;;;;;;;;;2.70;87.20;;;-151.14;100.00;62537.16;5008228;28;19922;-91
2023/01/28 11:51:31;;;;;;;;;;;2.70;87.20;;;-151.14;100.00;62537.16;4990245;28;19928;-91
2023/01/28 11:54:12;;;;;;;;;;;2.70;87.20;;;-151.14;100.00;62537.16;4990699;28;19922;-91
2023/01/28 11:56:46;;;;;;;;;;;2.70;87.10;;;-151.14;100.00;62537.16;5007219;28;19922;-91
2023/01/28 11:59:28;;;;;;;;;;;2.70;87.10;;;-151.14;100.00;62537.16;4990570;28;19922;-90
2023/01/28 12:01:58;;;;;;;;;;;2.70;87.10;;;-151.14;100.00;62537.16;5006639;28;20117;-90
2023/01/28 12:04:37;;;;;;;;;;;2.70;87.20;;;-151.14;100.00;62537.16;4990599;28;19944;-91
2023/01/28 12:07:18;;;;;;;;;;;2.70;87.10;;;-151.14;100.00;62537.16;4990529;28;19922;-91
2023/01/28 12:09:50;;;;;;;;;;;2.70;87.00;;;-151.14;100.00;62537.16;4990018;28;19929;-91
2023/01/28 12:12:36;;;;;;;;;;;2.70;87.10;;;-151.14;100.00;62537.16;4977073;28;19921;-91
2023/01/28 12:15:38;;;;;;;;;;;2.70;87.20;;;-151.14;100.00;62537.16;4977647;28;19929;-91
2023/01/28 12:18:13;;;;;;;;;;;2.70;87.20;;;-151.14;100.00;62537.16;4993782;28;19921;-91
2023/01/28 12:20:42;;;;;;;;;;;2.70;87.10;;;18.09;100.00;62537.16;4992741;28;19922;-90
2023/01/28 12:23:28;;;;;;;;;;;2.70;87.20;;;-151.14;100.00;62537.16;4977328;28;19928;-91
2023/01/28 12:26:05;;;;;;;;;;;2.70;87.20;;;-151.14;100.00;62537.16;4957369;28;19922;-91
2023/01/28 12:28:43;;;;;;;;;;;2.70;87.20;;;-151.14;100.00;62537.16;4958113;28;19929;-88
2023/01/28 12:31:40;;;;;;;;;;;2.70;87.30;;;-151.14;100.00;62537.16;4957563;28;19922;-89
2023/01/28 12:35:01;;;;;;;;;;;2.70;87.30;;;-151.14;100.00;62537.16;4957897;28;20116;-89
2023/01/28 12:37:35;;;;;;;;;;;2.70;87.40;;;-151.14;100.00;62537.16;4903440;29;19923;-87
2023/01/28 12:40:10;;;;;;;;;;;2.70;87.40;;;-151.14;100.00;62537.16;4914723;29;19923;-87
2023/01/28 12:42:40;;;;;;;;;;;2.70;87.40;;;-151.14;100.00;62537.16;4950492;28;19928;-89
2023/01/28 12:45:16;;;;;;;;;;;2.60;87.20;;;-151.14;100.00;62537.16;4977110;28;19922;-89
2023/01/28 12:47:47;;;;;;;;;;;2.60;87.20;;;-151.14;100.00;62537.16;4977374;28;19929;-89
2023/01/28 12:50:17;;;;;;;;;;;2.60;87.30;;;-151.14;100.00;62537.16;4992753;28;20117;-87
2023/01/28 12:52:47;;;;;;;;;;;2.60;87.30;;;-151.14;100.00;62537.16;4976910;28;20098;-88
2023/01/28 12:55:16;;;;;;;;;;;2.70;87.50;;;-151.14;100.00;62537.16;5009386;28;20235;-89
2023/01/28 12:57:44;;;;;;;;;;;2.60;87.30;;;-151.14;100.00;62537.16;4976756;28;20102;-88
2023/01/28 13:00:21;;;;;;;;;;;2.70;87.50;;;1.33;100.00;62537.16;4976173;28;19928;-89
2023/01/28 13:02:52;;;;;;;;;;;2.60;87.30;;;-151.14;100.00;62537.16;4976690;28;20113;-89
2023/01/28 13:05:21;;;;;;;;;;;2.60;87.30;;;-151.14;100.00;62537.16;4989654;28;19923;-89
2023/01/28 13:07:52;;;;;;;;;;;2.70;87.50;;;-151.14;100.00;62537.16;4973724;28;19944;-89
2023/01/28 13:10:24;;;;;;;;;;;2.70;87.40;;;-151.14;100.00;62537.16;4956916;28;19986;-88
2023/01/28 13:12:52;;;;;;;;;;;2.60;87.40;;;18.09;100.00;62537.16;4989425;28;20210;-88
2023/01/28 13:15:21;;;;;;;;;;;2.60;87.30;;;-151.14;100.00;62537.16;4957370;28;20216;-89
2023/01/28 13:17:57;;;;;;;;;;;2.60;87.30;;;-151.14;100.00;62537.16;4973285;28;19922;-88
2023/01/28 13:20:36;;;;;;;;;;;2.70;87.50;;;-151.14;100.00;62537.16;4972666;28;19922;-88
2023/01/28 13:23:05;;;;;;;;;;;2.60;87.30;;;-151.14;100.00;62537.16;4956141;28;20121;-88
2023/01/28 13:25:33;;;;;;;;;;;2.70;87.50;;;-151.14;100.00;62537.16;4973086;28;19940;-89
2023/01/28 13:28:02;;;;;;;;;;;2.60;87.30;;;1.30;100.00;62537.16;4989370;28;19922;-88
2023/01/28 13:30:32;;;;;;;;;;;2.70;87.50;;;-151.14;100.00;62537.16;4956576;28;20213;-88
2023/01/28 13:33:01;;;;;;;;;;;2.70;87.40;;;-151.14;100.00;62537.16;4957244;28;19922;-89
2023/01/28 13:35:34;;;;;;;;;;;2.60;87.30;;;-151.14;100.00;62537.16;4957382;28;19929;-88
2023/01/28 13:38:09;;;;;;;;;;;2.60;87.40;;;-151.14;100.00;62537.16;4957125;28;19922;-89
2023/01/28 13:40:37;;;;;;;;;;;2.60;87.30;;;-151.14;100.00;62537.16;4988760;28;19922;-88
2023/01/28 13:43:06;;;;;;;;;;;2.60;87.30;;;-151.14;100.00;62537.16;4972544;28;19944;-88
2023/01/28 13:45:36;;;;;;;;;;;2.60;87.30;;;18.10;100.00;62537.16;4957019;28;19922;-89
2023/01/28 13:48:16;;;;;;;;;;;2.60;87.30;;;-151.14;100.00;62537.16;4956453;28;19937;-89
2023/01/28 13:50:44;;;;;;;;;;;2.60;87.30;;;18.10;100.00;62537.16;4956354;28;19922;-88
2023/01/28 13:53:22;;;;;;;;;;;2.60;87.30;;;-151.14;100.00;62537.16;4973846;28;19923;-89
2023/01/28 13:55:51;;;;;;;;;;;2.60;87.20;;;-151.14;100.00;62537.16;4956831;28;19926;-88
2023/01/28 13:58:41;;;;;;;;;;;2.60;87.30;;;-151.14;100.00;62537.16;4988951;28;19929;-89
2023/01/28 14:01:38;;;;;;;;;;;2.60;87.30;;;-151.14;100.00;62537.16;4972320;28;19930;-89
2023/01/28 14:04:42;;;;;;;;;;;2.60;87.20;;;-151.14;100.00;62537.16;4954976;28;19929;-90
2023/01/28 14:07:14;;;;;;;;;;;2.60;87.30;;;-151.14;100.00;62537.16;4944055;28;20481;-89
2023/01/28 14:10:05;;;;;;;;;;;2.60;87.40;;;-151.14;100.00;62537.16;4955715;28;19941;-88
2023/01/28 14:12:57;;;;;;;;;;;2.60;88.30;;;-151.14;100.00;62537.16;4972271;28;20231;-89
2023/01/28 14:15:50;;;;;;;;;;;2.60;87.40;;;-151.14;100.00;62537.16;4922635;28;19922;-88
2023/01/28 14:18:25;;;;;;;;;;;2.60;87.40;;;-151.14;100.00;62537.16;4972082;28;19922;-88
2023/01/28 14:20:53;;;;;;;;;;;2.60;87.40;;;-151.14;100.00;62537.16;4977720;28;19944;-89
2023/01/28 14:23:22;;;;;;;;;;;2.60;87.50;;;-151.14;100.00;62537.16;4975490;28;19922;-88
2023/01/28 14:25:58;;;;;;;;;;;2.60;87.50;;;-151.14;100.00;62537.16;4975454;28;19928;-89
2023/01/28 14:28:34;;;;;;;;;;;2.50;87.50;;;18.24;100.00;62537.16;4992617;28;19926;-89
2023/01/28 14:31:04;;;;;;;;;;;2.50;87.60;;;-151.14;100.00;62537.16;4991221;28;19928;-88
2023/01/28 14:33:33;;;;;;;;;;;2.50;87.60;;;-151.14;100.00;62537.16;4975013;28;19932;-88
2023/01/28 14:36:01;;;;;;;;;;;2.60;87.50;;;-151.14;100.00;62537.16;4991697;28;20235;-89
2023/01/28 14:38:29;;;;;;;;;;;2.50;87.60;;;-151.14;100.00;62537.16;4975388;28;19922;-89
2023/01/28 14:40:57;;;;;;;;;;;2.50;87.60;;;-151.14;100.00;62537.16;4990947;28;19930;-89
2023/01/28 14:43:25;;;;;;;;;;;2.50;87.70;;;;;;4975420;28;19922;-90
2023/01/28 14:46:03;;;;;;;;;;;2.50;87.60;;;-151.14;100.00;62537.16;4975490;28;19928;-91
2023/01/28 14:48:37;;;;;;;;;;;2.50;87.80;;;-151.14;100.00;62537.16;4991428;28;19922;-92
2023/01/28 14:51:19;;;;;;;;;;;2.50;87.80;;;1.15;100.00;62537.16;4974651;28;20221;-91
2023/01/28 14:54:09;;;;;;;;;;;2.50;87.70;;;-151.14;100.00;62537.16;4991293;28;19928;-90
2023/01/28 14:56:44;;;;;;;;;;;2.50;87.80;;;-151.14;100.00;62537.16;4991119;28;20209;-91
2023/01/28 14:59:16;;;;;;;;;;;2.50;87.80;;;18.10;100.00;62537.16;5007651;28;19928;-90
2023/01/28 15:01:44;;;;;;;;;;;2.50;88.80;;;-151.14;100.00;62537.16;4974506;28;19921;-91
2023/01/28 15:04:24;;;;;;;;;;;2.50;87.90;;;-151.14;100.00;62537.16;4974889;28;19928;-91
2023/01/28 15:06:52;;;;;;;;;;;2.50;87.90;;;18.10;100.00;62537.16;4975160;28;20105;-91
2023/01/28 15:09:19;;;;;;;;;;;2.50;87.90;;;-151.14;100.00;62537.16;4991313;28;19981;-90
2023/01/28 15:11:48;;;;;;;;;;;2.50;87.90;;;-151.14;100.00;62537.16;4990747;28;20304;-90
2023/01/28 15:14:21;;;;;;;;;;;2.50;87.90;;;1.12;100.00;62537.16;4991234;28;19921;-91
2023/01/28 15:16:49;;;;;;;;;;;2.50;87.90;;;1.13;100.00;62537.16;4974975;28;19921;-90
2023/01/28 15:19:17;;;;;;;;;;;2.50;87.90;;;-151.14;100.00;62537.16;4974901;28;19922;-90
2023/01/28 15:21:46;;;;;;;;;;;2.50;88.00;;;-151.14;100.00;62537.16;4974205;28;19922;-89
2023/01/28 15:24:14;;;;;;;;;;;2.50;88.00;;;-151.14;100.00;62537.16;4975033;28;19928;-91
2023/01/28 15:26:45;;;;;;;;;;;2.50;88.00;;;-151.14;100.00;62537.16;4974840;28;19928;-91
2023/01/28 15:29:25;;;;;;;;;;;2.50;88.00;;;-151.14;100.00;62537.16;5007226;28;19928;-90
2023/01/28 15:31:53;;;;;;;;;;;2.50;88.00;;;-151.14;100.00;62537.16;4990379;28;20213;-91
2023/01/28 15:34:22;;;;;;;;;;;2.50;88.10;;;1.09;100.00;62537.16;4990771;28;19922;-91
2023/01/28 15:36:51;;;;;;;;;;;2.50;88.10;;;-151.14;100.00;62537.16;4974824;28;19957;-91
2023/01/28 15:39:20;;;;;;;;;;;2.40;88.00;;;-151.14;100.00;62537.16;4974973;28;20197;-91
2023/01/28 15:41:50;;;;;;;;;;;2.40;88.00;;;-151.14;100.00;62537.16;4990096;28;19937;-91
2023/01/28 15:44:18;;;;;;;;;;;2.50;88.10;;;-151.14;100.00;62537.16;4990748;28;19928;-91
2023/01/28 15:46:46;;;;;;;;;;;2.50;88.10;;;-151.14;100.00;62537.16;4976755;28;19926;-91
2023/01/28 15:49:14;;;;;;;;;;;2.50;88.10;;;-151.14;100.00;62537.16;4994140;28;19921;-91
2023/01/28 15:51:42;;;;;;;;;;;2.40;88.00;;;18.09;100.00;62537.16;4994661;28;19922;-91
2023/01/28 15:54:12;;;;;;;;;;;2.40;88.10;;;1.09;100.00;62537.16;4993032;28;19929;-90
2023/01/28 15:56:40;;;;;;;;;;;2.50;88.20;;;-151.14;100.00;62537.16;4977928;28;19922;-91
2023/01/28 15:59:17;;;;;;;;;;;2.40;88.00;;;-151.14;100.00;62537.16;5010268;28;19928;-91
2023/01/28 16:01:45;;;;;;;;;;;2.50;88.10;;;18.10;100.00;62537.16;4993248;28;20094;-91
2023/01/28 16:04:22;;;;;;;;;;;2.40;87.90;;;-151.14;100.00;62537.16;4977643;28;19922;-91
2023/01/28 16:06:50;;;;;;;;;;;2.40;88.00;;;1.09;100.00;62537.16;4977726;28;20098;-91
2023/01/28 16:09:23;;;;;;;;;;;2.40;88.00;;;-151.14;100.00;62537.16;4977789;28;19922;-91
2023/01/28 16:11:51;;;;;;;;;;;2.40;88.00;;;-151.14;100.00;62537.16;4977048;28;19929;-90
2023/01/28 16:14:22;;;;;;;;;;;2.40;88.00;;;1.08;100.00;62537.16;4977523;28;19922;-91
2023/01/28 16:16:50;;;;;;;;;;;2.40;88.00;;;1.08;100.00;62537.16;4977474;28;19922;-91
2023/01/28 16:19:24;;;;;;;;;;;2.50;88.10;;;1.05;100.00;62537.16;4993385;28;19922;-91
2023/01/28 16:21:52;;;;;;;;;;;2.40;88.00;;;-151.14;100.00;62537.16;4976802;28;19922;-91
2023/01/28 16:24:23;;;;;;;;;;;2.40;88.10;;;1.07;100.00;62537.16;4993402;28;19921;-91
2023/01/28 16:27:01;;;;;;;;;;;2.40;88.10;;;-151.14;100.00;62537.16;4977445;28;19922;-89
2023/01/28 16:29:29;;;;;;;;;;;2.40;88.00;;;1.07;100.00;62537.16;4993386;28;19928;-91
2023/01/28 16:31:58;;;;;;;;;;;2.40;88.10;;;-151.14;100.00;62537.16;4992967;28;20225;-91
2023/01/28 16:34:27;;;;;;;;;;;2.40;88.10;;;-151.14;100.00;62537.16;4977266;28;19921;-90
2023/01/28 16:36:57;;;;;;;;;;;2.40;88.10;;;-151.14;100.00;62537.16;4977185;28;19928;-91
2023/01/28 16:39:26;;;;;;;;;;;2.40;88.10;;;-151.14;100.00;62537.16;4993336;28;19928;-91
2023/01/28 16:41:55;;;;;;;;;;;2.40;88.20;;;-151.14;100.00;62537.16;4976495;28;20213;-90
2023/01/28 16:44:23;;;;;;;;;;;2.40;88.20;;;-151.14;100.00;62537.16;4977162;28;19928;-90
2023/01/28 16:46:51;;;;;;;;;;;2.40;88.20;;;-151.14;100.00;62537.16;4993305;28;19922;-89
2023/01/28 16:49:19;;;;;;;;;;;2.40;88.00;;;-151.14;100.00;62537.16;4994341;28;19921;-91
2023/01/28 16:51:47;;;;;;;;;;;2.40;88.10;;;-151.14;100.00;62537.16;4976416;28;20213;-89
2023/01/28 16:54:16;;;;;;;;;;;2.40;88.10;;;1.05;100.00;82154.38;4976889;28;19932;-88
2023/01/28 16:56:45;;;;;;;;;;;2.40;88.10;;;-151.14;100.00;62537.16;4976813;28;19926;-90
2023/01/28 16:59:13;;;;;;;;;;;2.40;88.10;;;-151.14;100.00;62537.16;4976903;28;19922;-90
2023/01/28 17:01:41;;;;;;;;;;;2.40;88.10;;;18.10;100.00;62537.16;4976092;28;19922;-89
2023/01/28 17:04:09;;;;;;;;;;;2.40;88.10;;;-151.14;100.00;62537.16;4993235;28;19922;-89
2023/01/28 17:06:37;;;;;;;;;;;2.40;88.10;;;-151.14;100.00;62537.16;4992904;28;19928;-89
2023/01/28 17:09:05;;;;;;;;;;;2.40;88.00;;;18.12;100.00;62537.16;4992849;28;19928;-89
2023/01/28 17:11:33;;;;;;;;;;;2.40;88.00;;;-151.14;100.00;62537.16;4975961;28;19922;-89
2023/01/28 17:14:03;;;;;;;;;;;2.40;88.00;;;18.08;100.00;62537.16;4992695;28;19922;-89
2023/01/28 17:16:31;;;;;;;;;;;2.40;88.20;;;-151.14;100.00;62537.16;4993773;28;19922;-89
2023/01/28 17:18:59;;;;;;;;;;;2.40;88.20;;;-151.14;100.00;62537.16;4992719;28;19921;-89
2023/01/28 17:21:27;;;;;;;;;;;2.40;88.20;;;-151.14;100.00;62537.16;4993605;28;19922;-89
2023/01/28 17:23:55;;;;;;;;;;;2.40;88.10;;;-151.14;100.00;62537.16;4980168;28;19928;-88
2023/01/28 17:26:23;;;;;;;;;;;2.40;88.20;;;-151.14;100.00;62537.16;4979715;28;19922;-87
2023/01/28 17:28:54;;;;;;;;;;;2.40;88.10;;;-151.14;100.00;62537.16;4979562;28;19928;-88
2023/01/28 17:31:25;;;;;;;;;;;2.40;88.20;;;-151.14;100.00;62537.16;4979350;28;19921;-88
2023/01/28 17:33:53;;;;;;;;;;;2.40;88.10;;;-151.14;100.00;62537.16;4995760;28;19922;-87
2023/01/28 17:36:21;;;;;;;;;;;2.40;88.30;;;1.03;100.00;62537.16;4995599;28;20235;-88
2023/01/28 17:38:49;;;;;;;;;;;2.40;88.20;;;-151.14;100.00;62537.16;5013176;28;20098;-88
2023/01/28 17:41:17;;;;;;;;;;;2.40;88.20;;;-151.14;100.00;62537.16;4995207;28;19922;-87
2023/01/28 17:43:50;;;;;;;;;;;2.40;88.20;;;-151.14;100.00;62537.16;4979338;28;19928;-88
2023/01/28 17:46:18;;;;;;;;;;;2.40;88.20;;;1.01;100.00;62537.16;4979490;28;19928;-87
2023/01/28 17:48:47;;;;;;;;;;;2.40;88.20;;;-151.14;100.00;62537.16;4995409;28;20239;-88
2023/01/28 17:51:17;;;;;;;;;;;2.40;88.20;;;-151.14;100.00;62537.16;4979163;28;19928;-87
2023/01/28 17:53:46;;;;;;;;;;;2.40;88.20;;;-151.14;100.00;62537.16;4995493;28;19936;-88
2023/01/28 17:56:16;;;;;;;;;;;2.40;88.20;;;-151.14;100.00;62537.16;4979061;28;19928;-87
2023/01/28 17:58:45;;;;;;;;;;;2.40;88.30;;;-151.14;100.00;62537.16;4979406;28;19922;-88
2023/01/28 18:01:12;;;;;;;;;;;2.40;88.40;;;-151.14;100.00;62537.16;4994805;28;19921;-88
2023/01/28 18:03:40;;;;;;;;;;;2.40;88.30;;;1.02;100.00;62537.16;4979037;28;19929;-88
2023/01/28 18:06:10;;;;;;;;;;;2.40;88.20;;;-151.14;100.00;62537.16;4995411;28;19922;-88
2023/01/28 18:08:37;;;;;;;;;;;2.40;88.30;;;1.03;100.00;62537.16;4994866;28;19921;-88
2023/01/28 18:11:07;;;;;;;;;;;2.40;88.30;;;1.02;100.00;62537.16;4995005;28;19925;-87
2023/01/28 18:13:36;;;;;;;;;;;2.40;88.30;;;1.04;100.00;62537.16;4978969;28;19928;-88
2023/01/28 18:16:04;;;;;;;;;;;2.40;88.40;;;-151.14;100.00;62537.16;5012464;28;19921;-88
2023/01/28 18:18:32;;;;;;;;;;;2.40;88.30;;;18.10;100.00;62537.16;4995154;28;19921;-88
2023/01/28 18:21:01;;;;;;;;;;;2.40;88.30;;;1.04;100.00;62537.16;5012077;28;19943;-88
2023/01/28 18:23:31;;;;;;;;;;;2.40;88.30;;;-151.14;100.00;62537.16;4994930;28;19921;-88
2023/01/28 18:25:59;;;;;;;;;;;2.40;88.30;;;18.12;100.00;62537.16;4994860;28;19928;-87
2023/01/28 18:28:28;;;;;;;;;;;2.40;89.10;;;-151.14;100.00;62537.16;4978851;28;19928;-88
2023/01/28 18:30:56;;;;;;;;;;;2.40;88.20;;;-151.14;100.00;62537.16;4978524;28;20247;-88
2023/01/28 18:33:24;;;;;;;;;;;2.40;88.30;;;-151.14;100.00;62537.16;4995057;28;19928;-87
2023/01/28 18:35:52;;;;;;;;;;;2.40;88.30;;;-151.14;100.00;62537.16;4995000;28;19922;-88
2023/01/28 18:38:19;;;;;;;;;;;2.40;88.30;;;-151.14;100.00;62537.16;4994771;28;19926;-87
2023/01/28 18:40:53;;;;;;;;;;;2.40;88.40;;;-151.14;100.00;62537.16;4994635;28;19921;-88
2023/01/28 18:43:21;;;;;;;;;;;2.40;88.30;;;18.10;100.00;62537.16;4978496;28;20308;-88
2023/01/28 18:45:50;;;;;;;;;;;2.40;88.30;;;-151.14;100.00;62537.16;4978572;28;20133;-88
2023/01/28 18:48:18;;;;;;;;;;;2.40;88.30;;;1.02;100.00;62537.16;4994814;28;19928;-87
2023/01/28 18:50:49;;;;;;;;;;;2.40;88.20;;;-151.14;100.00;62537.16;4978485;28;19929;-88
2023/01/28 18:53:17;;;;;;;;;;;2.40;88.30;;;-151.14;100.00;62537.16;4978406;28;19928;-88
2023/01/28 18:55:45;;;;;;;;;;;2.40;88.30;;;-151.14;100.00;62537.16;4978469;28;20124;-88
2023/01/28 18:58:15;;;;;;;;;;;2.40;88.40;;;-151.14;100.00;62537.16;4978422;28;19928;-88
2023/01/28 19:00:43;;;;;;;;;;;2.40;88.30;;;18.10;100.00;62537.16;4978119;28;19928;-88
2023/01/28 19:03:11;;;;;;;;;;;2.40;88.40;;;-151.14;100.00;62537.16;4994648;28;19921;-88
2023/01/28 19:05:39;;;;;;;;;;;2.40;88.20;;;-151.14;100.00;62537.16;4978487;28;19922;-88
2023/01/28 19:08:07;;;;;;;;;;;2.40;88.20;;;-151.14;100.00;62537.16;4994488;28;19922;-87
2023/01/28 19:10:35;;;;;;;;;;;2.40;88.20;;;-151.14;100.00;62537.16;4978100;28;19921;-88
2023/01/28 19:13:03;;;;;;;;;;;2.40;88.30;;;18.09;100.00;62537.16;4978293;28;19922;-88
2023/01/28 19:15:32;;;;;;;;;;;2.40;88.30;;;-151.14;100.00;62537.16;4978212;28;19922;-88
2023/01/28 19:18:00;;;;;;;;;;;2.40;88.20;;;-151.14;100.00;62537.16;5011805;28;19928;-87
2023/01/28 19:20:28;;;;;;;;;;;2.40;88.30;;;-151.14;100.00;62537.16;4994435;28;19921;-88
2023/01/28 19:22:57;;;;;;;;;;;2.40;88.30;;;-151.14;100.00;62537.16;4997808;28;19927;-88
2023/01/28 19:25:25;;;;;;;;;;;2.40;88.30;;;-151.14;100.00;62537.16;4997716;28;19922;-88
2023/01/28 19:27:53;;;;;;;;;;;2.40;88.20;;;-151.14;100.00;62537.16;4981527;28;19928;-88
2023/01/28 19:30:21;;;;;;;;;;;2.40;88.20;;;-151.14;100.00;62537.16;4997489;28;19928;-88
2023/01/28 19:32:52;;;;;;;;;;;2.40;88.30;;;-151.14;100.00;62537.16;4997515;28;19922;-88
2023/01/28 19:35:20;;;;;;;;;;;2.40;88.20;;;-151.14;100.00;62537.16;4981558;28;19944;-87
2023/01/28 19:37:48;;;;;;;;;;;2.40;88.20;;;1.01;100.00;62537.16;4981392;28;19927;-88
2023/01/28 19:40:17;;;;;;;;;;;2.40;88.30;;;-151.14;100.00;62537.16;4981144;28;19921;-88
2023/01/28 19:42:45;;;;;;;;;;;2.40;88.30;;;-151.14;100.00;62537.16;4981189;28;19928;-88
2023/01/28 19:45:13;;;;;;;;;;;2.40;88.40;;;-151.14;100.00;62537.16;5014858;28;19927;-88
2023/01/28 19:47:41;;;;;;;;;;;2.40;88.30;;;-151.14;100.00;62537.16;5014726;28;19928;-88
2023/01/28 19:50:11;;;;;;;;;;;2.40;88.20;;;-151.14;100.00;62537.16;4981076;28;19928;-88
2023/01/28 19:52:39;;;;;;;;;;;2.40;88.30;;;;;;5014707;28;20213;-88
2023/01/28 19:55:08;;;;;;;;;;;2.40;88.40;;;-151.14;100.00;62537.16;4981349;28;19922;-88